createdAt,value
2022-12-08T00:00:01.891Z,99115.81
2022-12-08T00:02:51.058Z,99117.20
2022-12-08T00:05:38.405Z,99109.48
2022-12-08T00:08:25.609Z,99108.45
2022-12-08T00:10:54.456Z,99103.61
2022-12-08T00:13:22.986Z,99099.96
2022-12-08T00:15:51.473Z,99101.13
2022-12-08T00:18:19.772Z,99099.77
2022-12-08T00:20:55.910Z,99097.88
2022-12-08T00:23:25.376Z,99100.52
2022-12-08T00:25:53.913Z,99096.93
2022-12-08T00:28:24.807Z,99104.05
2022-12-08T00:30:53.122Z,99111.34
2022-12-08T00:33:21.588Z,99111.39
2022-12-08T00:35:50.238Z,99114.02
2022-12-08T00:38:18.608Z,99109.72
2022-12-08T00:40:47.772Z,99106.14
2022-12-08T00:43:16.295Z,99107.38
2022-12-08T00:45:45.243Z,99104.11
2022-12-08T00:48:14.630Z,99103.11
2022-12-08T00:50:43.287Z,99098.46
2022-12-08T00:53:11.625Z,99101.73
2022-12-08T00:55:40.161Z,99100.19
2022-12-08T00:58:11.532Z,99102.44
2022-12-08T01:00:42.144Z,99102.27
2022-12-08T01:03:11.793Z,99104.52
2022-12-08T01:05:40.625Z,99106.77
2022-12-08T01:08:09.370Z,99112.98
2022-12-08T01:10:39.844Z,99118.32
2022-12-08T01:13:08.732Z,99121.45
2022-12-08T01:15:37.364Z,99124.02
2022-12-08T01:18:06.159Z,99124.20
2022-12-08T01:20:34.443Z,99122.48
2022-12-08T01:23:02.899Z,99124.20
2022-12-08T01:25:34.079Z,99121.45
2022-12-08T01:28:02.374Z,99123.20
2022-12-08T01:30:30.940Z,99121.16
2022-12-08T01:32:59.685Z,99122.41
2022-12-08T01:35:28.708Z,99118.82
2022-12-08T01:37:57.125Z,99114.71
2022-12-08T01:40:25.546Z,99115.44
2022-12-08T01:42:55.684Z,99111.17
2022-12-08T01:45:31.644Z,99113.61
2022-12-08T01:48:15.874Z,99111.58
2022-12-08T01:50:45.083Z,99111.94
2022-12-08T01:53:18.963Z,99116.93
2022-12-08T01:56:02.545Z,99116.27
2022-12-08T01:58:45.489Z,99116.63
2022-12-08T02:01:14.550Z,99112.50
2022-12-08T02:04:00.830Z,99111.83
2022-12-08T02:06:34.016Z,99111.66
2022-12-08T02:09:03.748Z,99100.29
2022-12-08T02:11:32.077Z,99104.77
2022-12-08T02:14:03.866Z,99106.50
2022-12-08T02:16:56.796Z,99105.44
2022-12-08T02:19:52.265Z,99099.54
2022-12-08T02:23:08.721Z,99100.05
2022-12-08T02:25:45.703Z,99098.49
2022-12-08T02:28:31.417Z,99102.08
2022-12-08T02:31:32.135Z,99102.59
2022-12-08T02:34:14.627Z,99098.27
2022-12-08T02:36:47.738Z,99098.76
2022-12-08T02:39:15.954Z,99093.91
2022-12-08T02:41:59.143Z,99094.92
2022-12-08T02:44:46.178Z,99091.46
2022-12-08T02:47:18.997Z,99088.48
2022-12-08T02:49:47.541Z,99087.77
2022-12-08T02:52:18.875Z,99084.63
2022-12-08T02:54:49.782Z,99084.77
2022-12-08T02:57:30.063Z,99087.51
2022-12-08T03:00:09.334Z,99088.34
2022-12-08T03:03:02.491Z,99083.32
2022-12-08T03:06:13.112Z,99083.13
2022-12-08T03:08:53.453Z,99080.88
2022-12-08T03:11:45.629Z,99074.50
2022-12-08T03:14:18.096Z,99069.33
2022-12-08T03:16:51.194Z,99068.81
2022-12-08T03:19:24.148Z,99064.70
2022-12-08T03:22:02.895Z,99061.43
2022-12-08T03:24:43.700Z,99060.74
2022-12-08T03:27:22.534Z,99055.41
2022-12-08T03:29:53.527Z,99057.98
2022-12-08T03:32:30.899Z,99050.73
2022-12-08T03:35:04.655Z,99050.39
2022-12-08T03:37:36.036Z,99047.79
2022-12-08T03:40:07.385Z,99044.52
2022-12-08T03:42:35.873Z,99042.09
2022-12-08T03:45:05.262Z,99040.35
2022-12-08T03:47:33.889Z,99042.39
2022-12-08T03:50:02.710Z,99041.35
2022-12-08T03:52:31.295Z,99039.10
2022-12-08T03:54:59.754Z,99039.79
2022-12-08T03:57:28.518Z,99038.41
2022-12-08T03:59:57.106Z,99034.63
2022-12-08T04:02:25.687Z,99032.52
2022-12-08T04:04:54.045Z,99029.75
2022-12-08T04:07:22.541Z,99025.60
2022-12-08T04:09:51.246Z,99026.14
2022-12-08T04:12:19.460Z,99024.25
2022-12-08T04:14:47.975Z,99020.81
2022-12-08T04:17:16.303Z,99016.84
2022-12-08T04:19:44.514Z,99015.63
2022-12-08T04:22:13.246Z,99005.45
2022-12-08T04:24:41.524Z,99002.02
2022-12-08T04:27:10.251Z,98994.25
2022-12-08T04:29:38.758Z,98998.73
2022-12-08T04:32:07.116Z,98994.27
2022-12-08T04:34:35.343Z,98994.27
2022-12-08T04:37:03.955Z,98992.70
2022-12-08T04:39:32.533Z,98989.77
2022-12-08T04:42:01.093Z,98987.17
2022-12-08T04:44:29.508Z,98983.18
2022-12-08T04:46:57.874Z,98982.48
2022-12-08T04:49:26.164Z,98981.77
2022-12-08T04:51:54.431Z,98983.48
2022-12-08T04:54:22.746Z,98977.10
2022-12-08T04:56:52.014Z,98978.98
2022-12-08T04:59:20.590Z,98979.31
2022-12-08T05:01:49.256Z,98979.66
2022-12-08T05:04:17.713Z,98980.16
2022-12-08T05:06:46.478Z,98976.55
2022-12-08T05:09:14.696Z,98972.57
2022-12-08T05:11:48.525Z,98971.37
2022-12-08T05:14:19.327Z,98969.66
2022-12-08T05:16:48.483Z,98968.62
2022-12-08T05:19:17.338Z,98966.36
2022-12-08T05:21:46.824Z,98964.29
2022-12-08T05:24:14.986Z,98965.15
2022-12-08T05:26:43.347Z,98964.98
2022-12-08T05:29:11.875Z,98960.34
2022-12-08T05:31:40.743Z,98962.75
2022-12-08T05:34:09.653Z,98962.06
2022-12-08T05:36:38.185Z,98961.71
2022-12-08T05:39:06.569Z,98957.58
2022-12-08T05:41:35.496Z,98960.50
2022-12-08T05:44:04.782Z,98958.40
2022-12-08T05:46:33.582Z,98955.96
2022-12-08T05:49:03.717Z,98951.66
2022-12-08T05:51:33.281Z,98951.32
2022-12-08T05:54:01.698Z,98952.17
2022-12-08T05:56:30.462Z,98948.88
2022-12-08T05:58:59.273Z,98945.92
2022-12-08T06:01:31.508Z,98946.92
2022-12-08T06:04:02.144Z,98944.52
2022-12-08T06:06:31.578Z,98943.52
2022-12-08T06:08:59.988Z,98944.55
2022-12-08T06:11:32.012Z,98940.05
2022-12-08T06:14:01.508Z,98941.58
2022-12-08T06:16:30.408Z,98938.98
2022-12-08T06:18:58.760Z,98940.89
2022-12-08T06:21:27.176Z,98941.91
2022-12-08T06:23:56.017Z,98937.61
2022-12-08T06:26:24.382Z,98943.80
2022-12-08T06:28:53.402Z,98941.52
2022-12-08T06:31:24.875Z,98942.52
2022-12-08T06:33:55.509Z,98948.36
2022-12-08T06:36:26.176Z,98949.20
2022-12-08T06:38:54.713Z,98951.42
2022-12-08T06:41:23.096Z,98950.39
2022-12-08T06:43:51.791Z,98953.64
2022-12-08T06:46:20.989Z,98953.42
2022-12-08T06:48:50.980Z,98956.67
2022-12-08T06:51:23.126Z,98962.23
2022-12-08T06:53:51.975Z,98961.35
2022-12-08T06:56:20.801Z,98964.46
2022-12-08T06:58:52.764Z,98968.92
2022-12-08T07:01:22.495Z,98970.83
2022-12-08T07:03:51.652Z,98972.91
2022-12-08T07:06:23.617Z,98972.38
2022-12-08T07:08:52.823Z,98971.02
2022-12-08T07:11:22.598Z,98972.17
2022-12-08T07:13:51.692Z,98970.24
2022-12-08T07:16:20.791Z,98972.81
2022-12-08T07:18:49.730Z,98972.13
2022-12-08T07:21:21.453Z,98968.84
2022-12-08T07:23:55.917Z,98974.16
2022-12-08T07:26:27.112Z,98972.42
2022-12-08T07:28:55.906Z,98969.98
2022-12-08T07:31:26.182Z,98972.88
2022-12-08T07:33:56.207Z,98973.58
2022-12-08T07:36:25.973Z,98973.23
2022-12-08T07:38:54.730Z,98974.42
2022-12-08T07:41:25.973Z,98974.39
2022-12-08T07:43:56.343Z,98972.96
2022-12-08T07:46:26.307Z,98967.74
2022-12-08T07:48:55.642Z,98973.02
2022-12-08T07:51:25.479Z,98969.78
2022-12-08T07:53:55.263Z,98970.16
2022-12-08T07:56:24.996Z,98969.65
2022-12-08T07:58:53.683Z,98971.02
2022-12-08T08:01:28.284Z,98971.02
2022-12-08T08:03:59.357Z,98967.70
2022-12-08T08:06:29.908Z,98967.52
2022-12-08T08:08:58.734Z,98968.86
2022-12-08T08:11:27.423Z,98965.20
2022-12-08T08:13:57.456Z,98967.08
2022-12-08T08:16:25.851Z,98966.89
2022-12-08T08:18:56.329Z,98970.15
2022-12-08T08:24:13.380Z,98970.95
2022-12-08T08:26:41.747Z,98970.41
2022-12-08T08:29:10.407Z,98972.64
2022-12-08T08:31:39.620Z,98975.56
2022-12-08T08:34:09.373Z,98975.55
2022-12-08T08:36:38.026Z,98976.38
2022-12-08T08:39:06.572Z,98974.61
2022-12-08T08:41:35.836Z,98974.05
2022-12-08T08:44:05.009Z,98973.54
2022-12-08T08:46:33.503Z,98977.64
2022-12-08T08:49:01.905Z,98978.46
2022-12-08T08:51:30.559Z,98977.08
2022-12-08T08:53:59.285Z,98981.55
2022-12-08T08:56:27.678Z,98981.36
2022-12-08T08:58:56.965Z,98977.88
2022-12-08T09:01:27.973Z,98973.86
2022-12-08T09:03:57.151Z,98973.69
2022-12-08T09:06:28.412Z,98972.77
2022-12-08T09:08:57.098Z,98970.61
2022-12-08T09:11:25.688Z,98976.77
2022-12-08T09:13:55.708Z,98971.91
2022-12-08T09:16:24.820Z,98975.84
2022-12-08T09:18:53.976Z,98970.46
2022-12-08T09:21:26.105Z,98970.39
2022-12-08T09:23:57.241Z,98965.31
2022-12-08T09:26:26.733Z,98960.93
2022-12-08T09:28:56.802Z,98958.10
2022-12-08T09:31:25.394Z,98956.84
2022-12-08T09:33:54.156Z,98956.45
2022-12-08T09:36:22.795Z,98955.51
2022-12-08T09:38:54.033Z,98949.75
2022-12-08T09:41:35.717Z,98949.66
2022-12-08T09:44:30.516Z,98944.63
2022-12-08T09:47:00.714Z,98941.29
2022-12-08T09:49:42.214Z,98938.46
2022-12-08T09:52:26.892Z,98939.27
2022-12-08T09:55:00.856Z,98943.37
2022-12-08T09:57:32.191Z,98941.60
2022-12-08T10:00:05.522Z,98944.85
2022-12-08T10:02:34.667Z,98944.30
2022-12-08T10:05:03.950Z,98944.78
2022-12-08T10:08:03.609Z,98941.07
2022-12-08T10:10:52.399Z,98939.41
2022-12-08T10:13:26.447Z,98944.15
2022-12-08T10:16:08.820Z,98942.73
2022-12-08T10:18:38.217Z,98935.02
2022-12-08T10:21:28.903Z,98935.77
2022-12-08T10:24:04.309Z,98930.30
2022-12-08T10:26:33.249Z,98931.59
2022-12-08T10:29:04.856Z,98924.39
2022-12-08T10:31:33.716Z,98926.08
2022-12-08T10:34:16.592Z,98928.98
2022-12-08T10:36:56.356Z,98924.11
2022-12-08T10:39:40.407Z,98926.63
2022-12-08T10:42:14.934Z,98923.83
2022-12-08T10:45:11.116Z,98924.09
2022-12-08T10:47:45.070Z,98919.29
2022-12-08T10:50:21.337Z,98917.23
2022-12-08T10:52:59.361Z,98910.41
2022-12-08T10:55:29.290Z,98907.75
2022-12-08T10:57:57.602Z,98906.94
2022-12-08T11:00:28.435Z,98905.12
2022-12-08T11:03:05.184Z,98909.54
2022-12-08T11:05:36.616Z,98907.82
2022-12-08T11:08:06.193Z,98903.43
2022-12-08T11:10:44.378Z,98899.42
2022-12-08T11:13:23.260Z,98901.02
2022-12-08T11:15:53.796Z,98900.99
2022-12-08T11:18:23.867Z,98900.64
2022-12-08T11:21:06.375Z,98904.55
2022-12-08T11:23:37.349Z,98901.73
2022-12-08T11:26:13.322Z,98894.25
2022-12-08T11:28:42.015Z,98888.05
2022-12-08T11:31:41.675Z,98880.90
2022-12-08T11:34:48.618Z,98877.26
2022-12-08T11:37:34.420Z,98871.98
2022-12-08T11:40:08.677Z,98876.38
2022-12-08T11:43:08.941Z,98870.39
2022-12-08T11:45:37.711Z,98872.86
2022-12-08T11:48:17.717Z,98868.17
2022-12-08T11:50:52.666Z,98863.93
2022-12-08T11:54:06.625Z,98862.08
2022-12-08T11:56:56.404Z,98860.34
2022-12-08T11:59:29.185Z,98857.86
2022-12-08T12:02:03.347Z,98854.16
2022-12-08T12:04:45.367Z,98847.02
2022-12-08T12:07:19.463Z,98848.17
2022-12-08T12:10:19.616Z,98846.38
2022-12-08T12:13:06.442Z,98847.02
2022-12-08T12:15:59.108Z,98848.30
2022-12-08T12:18:34.239Z,98850.27
2022-12-08T12:21:11.596Z,98847.02
2022-12-08T12:23:42.898Z,98846.44
2022-12-08T12:26:19.320Z,98846.92
2022-12-08T12:29:06.150Z,98845.08
2022-12-08T12:31:46.746Z,98847.69
2022-12-08T12:34:29.903Z,98849.77
2022-12-08T12:37:07.143Z,98854.11
2022-12-08T12:39:58.150Z,98849.92
2022-12-08T12:42:38.727Z,98851.27
2022-12-08T12:45:16.800Z,98843.73
2022-12-08T12:47:57.397Z,98841.29
2022-12-08T12:50:35.612Z,98841.12
2022-12-08T12:53:26.848Z,98841.09
2022-12-08T12:55:59.799Z,98838.98
2022-12-08T12:58:27.981Z,98837.92
2022-12-08T13:01:14.173Z,98833.81
2022-12-08T13:04:04.133Z,98832.25
2022-12-08T13:06:38.898Z,98828.35
2022-12-08T13:09:18.979Z,98823.30
2022-12-08T13:11:51.712Z,98822.45
2022-12-08T13:14:47.863Z,98823.58
2022-12-08T13:17:32.107Z,98820.78
2022-12-08T13:20:02.966Z,98819.64
2022-12-08T13:22:49.651Z,98817.98
2022-12-08T13:25:40.290Z,98809.33
2022-12-08T13:28:19.119Z,98810.07
2022-12-08T13:30:57.506Z,98814.59
2022-12-08T13:33:41.033Z,98813.92
2022-12-08T13:36:29.064Z,98812.70
2022-12-08T13:38:59.038Z,98813.08
2022-12-08T13:41:37.384Z,98814.13
2022-12-08T13:58:40.651Z,98808.14
2022-12-08T14:01:23.730Z,98816.23
2022-12-08T14:06:57.112Z,98818.51
2022-12-08T14:09:29.568Z,98815.52
2022-12-08T14:12:03.560Z,98809.20
2022-12-08T14:15:01.085Z,98811.41
2022-12-08T14:17:23.975Z,98807.44
2022-12-08T14:20:02.400Z,98808.66
2022-12-08T14:22:39.511Z,98810.10
2022-12-08T14:25:14.611Z,98809.65
2022-12-08T14:27:43.692Z,98807.30
2022-12-08T14:30:41.773Z,98803.57
2022-12-08T14:33:17.498Z,98803.65
2022-12-08T14:35:52.545Z,98804.05
2022-12-08T14:38:22.984Z,98805.45
2022-12-08T14:41:07.009Z,98807.34
2022-12-08T14:43:36.085Z,98805.47
2022-12-08T14:46:23.694Z,98812.38
2022-12-08T14:48:53.857Z,98806.82
2022-12-08T14:51:26.060Z,98811.48
2022-12-08T14:54:00.599Z,98810.81
2022-12-08T14:56:34.076Z,98810.30
2022-12-08T14:59:26.610Z,98808.77
2022-12-08T15:02:11.795Z,98808.27
2022-12-08T15:04:44.357Z,98810.73
2022-12-08T15:07:23.049Z,98808.32
2022-12-08T15:10:11.384Z,98807.46
2022-12-08T15:12:40.342Z,98804.73
2022-12-08T15:15:08.955Z,98804.59
2022-12-08T15:17:44.730Z,98806.01
2022-12-08T15:20:30.020Z,98806.05
2022-12-08T15:23:02.304Z,98808.02
2022-12-08T15:25:31.494Z,98809.80
2022-12-08T15:27:59.725Z,98807.58
2022-12-08T15:30:28.855Z,98811.58
2022-12-08T15:33:00.261Z,98808.87
2022-12-08T15:35:28.877Z,98810.30
2022-12-08T15:37:57.542Z,98809.48
2022-12-08T15:40:27.454Z,98809.88
2022-12-08T15:42:56.054Z,98811.80
2022-12-08T15:45:32.218Z,98813.26
2022-12-08T15:48:01.140Z,98812.98
2022-12-08T15:50:29.513Z,98810.84
2022-12-08T15:52:58.181Z,98809.01
2022-12-08T15:55:27.331Z,98808.55
2022-12-08T16:00:55.299Z,98806.77
2022-12-08T16:04:13.905Z,98804.40
2022-12-08T16:09:41.955Z,98807.79
2022-12-08T16:15:57.151Z,98806.34
2022-12-08T16:18:31.727Z,98802.33
2022-12-08T16:21:41.764Z,98800.44
2022-12-08T16:23:49.562Z,98805.98
2022-12-08T16:27:50.693Z,98805.17
2022-12-08T16:29:20.192Z,98807.27
2022-12-08T16:31:49.092Z,98809.70
2022-12-08T16:34:17.314Z,98808.48
2022-12-08T16:36:45.579Z,98807.81
2022-12-08T16:39:14.844Z,98808.14
2022-12-08T16:42:01.893Z,98807.13
2022-12-08T16:44:30.088Z,98804.70
2022-12-08T16:47:09.077Z,98809.90
2022-12-08T16:49:40.378Z,98808.39
2022-12-08T16:52:08.643Z,98809.79
2022-12-08T16:54:36.994Z,98815.52
2022-12-08T16:57:05.819Z,98808.20
2022-12-08T16:59:34.197Z,98811.64
2022-12-08T17:02:02.530Z,98812.13
2022-12-08T17:04:32.529Z,98809.31
2022-12-08T17:07:01.323Z,98812.09
2022-12-08T17:09:32.132Z,98815.90
2022-12-08T17:12:03.756Z,98815.89
2022-12-08T17:14:34.956Z,98813.46
2022-12-08T17:17:03.940Z,98809.95
2022-12-08T17:19:33.099Z,98813.73
2022-12-08T17:22:02.569Z,98815.13
2022-12-08T17:24:32.063Z,98813.92
2022-12-08T17:27:04.620Z,98813.73
2022-12-08T17:29:34.539Z,98815.96
2022-12-08T17:32:04.317Z,98816.27
2022-12-08T17:34:33.508Z,98815.92
2022-12-08T17:37:02.065Z,98815.02
2022-12-08T17:39:30.467Z,98817.45
2022-12-08T17:41:59.017Z,98820.39
2022-12-08T17:44:28.457Z,98822.85
2022-12-08T17:46:56.753Z,98825.77
2022-12-08T17:49:27.062Z,98825.02
2022-12-08T17:51:58.411Z,98825.45
2022-12-08T17:54:28.345Z,98829.43
2022-12-08T17:56:58.868Z,98830.17
2022-12-08T17:59:28.106Z,98830.39
2022-12-08T18:01:58.012Z,98829.73
2022-12-08T18:04:27.063Z,98826.63
2022-12-08T18:06:55.696Z,98829.41
2022-12-08T18:09:23.927Z,98829.92
2022-12-08T18:11:52.223Z,98828.89
2022-12-08T18:14:20.629Z,98829.92
2022-12-08T18:16:49.447Z,98828.03
2022-12-08T18:19:17.971Z,98833.29
2022-12-08T18:21:46.364Z,98828.80
2022-12-08T18:24:23.591Z,98834.91
2022-12-08T18:26:52.810Z,98832.34
2022-12-08T18:29:22.894Z,98830.61
2022-12-08T18:31:52.586Z,98830.14
2022-12-08T18:34:21.234Z,98831.56
2022-12-08T18:36:49.819Z,98831.61
2022-12-08T18:39:29.154Z,98832.66
2022-12-08T18:41:59.500Z,98836.69
2022-12-08T18:44:28.203Z,98836.58
2022-12-08T18:46:56.446Z,98838.89
2022-12-08T18:49:25.187Z,98837.18
2022-12-08T18:51:53.844Z,98838.98
2022-12-08T18:54:37.204Z,98834.71
2022-12-08T18:57:17.543Z,98833.35
2022-12-08T18:59:46.276Z,98833.55
2022-12-08T19:02:15.566Z,98833.44
2022-12-08T19:04:44.226Z,98834.69
2022-12-08T19:07:13.326Z,98835.56
2022-12-08T19:09:43.968Z,98838.86
2022-12-08T19:12:13.489Z,98838.90
2022-12-08T19:14:41.827Z,98845.98
2022-12-08T19:17:10.282Z,98850.50
2022-12-08T19:19:38.656Z,98857.93
2022-12-08T19:22:07.298Z,98857.94
2022-12-08T19:24:38.081Z,98862.45
2022-12-08T19:27:06.415Z,98862.00
2022-12-08T19:29:35.070Z,98862.21
2022-12-08T19:32:05.301Z,98866.23
2022-12-08T19:34:33.950Z,98865.05
2022-12-08T19:37:02.219Z,98873.91
2022-12-08T19:39:49.846Z,98874.36
2022-12-08T19:42:43.599Z,98876.45
2022-12-08T19:45:17.535Z,98877.84
2022-12-08T19:47:46.288Z,98878.60
2022-12-08T19:50:35.681Z,98880.34
2022-12-08T19:53:11.046Z,98881.58
2022-12-08T19:55:40.226Z,98881.81
2022-12-08T19:58:10.113Z,98881.92
2022-12-08T20:00:43.412Z,98885.98
2022-12-08T20:03:17.368Z,98888.50
2022-12-08T20:05:50.635Z,98892.30
2022-12-08T20:08:19.034Z,98893.32
2022-12-08T20:10:47.429Z,98887.23
2022-12-08T20:13:34.330Z,98894.05
2022-12-08T20:16:03.096Z,98899.43
2022-12-08T20:18:31.407Z,98899.31
2022-12-08T20:20:59.774Z,98898.60
2022-12-08T20:23:28.103Z,98903.88
2022-12-08T20:25:57.188Z,98906.21
2022-12-08T20:28:25.492Z,98908.30
2022-12-08T20:30:53.799Z,98907.31
2022-12-08T20:33:22.247Z,98902.89
2022-12-08T20:36:00.240Z,98901.29
2022-12-08T20:38:32.079Z,98902.78
2022-12-08T20:41:03.981Z,98906.50
2022-12-08T20:43:33.578Z,98911.35
2022-12-08T20:46:10.909Z,98914.49
2022-12-08T20:48:39.707Z,98923.33
2022-12-08T20:51:08.749Z,98921.65
2022-12-08T20:53:37.163Z,98920.45
2022-12-08T20:56:06.065Z,98928.75
2022-12-08T20:58:34.760Z,98931.18
2022-12-08T21:01:09.522Z,98932.08
2022-12-08T21:03:39.943Z,98933.11
2022-12-08T21:06:10.600Z,98934.48
2022-12-08T21:08:40.285Z,98935.34
2022-12-08T21:11:12.836Z,98933.23
2022-12-08T21:13:43.536Z,98936.33
2022-12-08T21:16:15.173Z,98934.71
2022-12-08T21:18:44.329Z,98930.16
2022-12-08T21:21:15.151Z,98924.43
2022-12-08T21:23:45.335Z,98919.77
2022-12-08T21:26:17.209Z,98921.52
2022-12-08T21:28:46.291Z,98922.76
2022-12-08T21:31:17.617Z,98924.98
2022-12-08T21:33:46.506Z,98925.86
2022-12-08T21:36:19.050Z,98926.18
2022-12-08T21:38:48.693Z,98923.77
2022-12-08T21:41:39.407Z,98927.41
2022-12-08T21:44:11.346Z,98931.40
2022-12-08T21:46:40.094Z,98934.20
2022-12-08T21:49:10.212Z,98932.29
2022-12-08T21:51:42.953Z,98928.36
2022-12-08T21:54:18.788Z,98931.31
2022-12-08T21:56:49.906Z,98937.55
2022-12-08T21:59:19.955Z,98937.89
2022-12-08T22:01:49.084Z,98937.05
2022-12-08T22:04:21.802Z,98937.08
2022-12-08T22:06:50.501Z,98940.36
2022-12-08T22:09:19.406Z,98941.93
2022-12-08T22:11:48.983Z,98940.90
2022-12-08T22:14:18.212Z,98944.01
2022-12-08T22:16:46.910Z,98946.96
2022-12-08T22:19:18.718Z,98947.11
2022-12-08T22:21:47.716Z,98947.45
2022-12-08T22:24:16.552Z,98944.88
2022-12-08T22:26:45.060Z,98941.94
2022-12-08T22:29:13.808Z,98942.98
2022-12-08T22:31:43.062Z,98942.48
2022-12-08T22:34:12.450Z,98938.70
2022-12-08T22:36:42.773Z,98933.86
2022-12-08T22:39:11.441Z,98934.20
2022-12-08T22:41:40.633Z,98937.66
2022-12-08T22:44:10.269Z,98941.13
2022-12-08T22:46:38.833Z,98942.49
2022-12-08T22:49:07.744Z,98947.85
2022-12-08T22:51:37.698Z,98945.46
2022-12-08T22:54:06.501Z,98950.83
2022-12-08T22:56:35.513Z,98953.45
2022-12-08T22:59:04.603Z,98953.10
2022-12-08T23:01:34.552Z,98960.52
2022-12-08T23:04:03.878Z,98953.80
2022-12-08T23:06:32.896Z,98953.29
2022-12-08T23:09:01.517Z,98950.71
2022-12-08T23:11:31.448Z,98950.55
2022-12-08T23:14:00.636Z,98951.23
2022-12-08T23:16:29.622Z,98949.66
2022-12-08T23:18:59.268Z,98949.34
2022-12-08T23:21:27.731Z,98953.84
2022-12-08T23:23:56.247Z,98953.35
2022-12-08T23:26:27.434Z,98953.19
2022-12-08T23:28:57.354Z,98949.08
2022-12-08T23:31:26.484Z,98948.06
2022-12-08T23:33:55.196Z,98942.03
2022-12-08T23:36:27.697Z,98943.59
2022-12-08T23:38:56.118Z,98941.55
2022-12-08T23:41:24.501Z,98941.05
2022-12-08T23:43:53.317Z,98938.48
2022-12-08T23:46:23.056Z,98940.02
2022-12-08T23:48:52.274Z,98948.83
2022-12-08T23:51:21.991Z,98950.04
2022-12-08T23:53:50.834Z,98952.64
2022-12-08T23:56:19.909Z,98954.72
2022-12-08T23:58:50.882Z,98958.52
